Time;durP1;ratioP1;P1;durP2;ratioP2;P2;SDS_P1;SDS_P2;PMS_P1;PMS_P2;Temp;Humidity;BMP_temperature;BMP_pressure;BME280_temperature;BME280_humidity;BME280_pressure;Samples;Min_cycle;Max_cycle;Signal;HPM_P1;HPM_P2
2022/02/16 00:02:22;;;;;;;8.37;3.90;;;1.50;99.90;;;;;;5000307;28;20582;-58
2022/02/16 00:04:48;;;;;;;6.20;3.60;;;1.50;99.90;;;;;;4999635;28;20168;-58
2022/02/16 00:07:14;;;;;;;7.20;3.73;;;1.50;99.90;;;;;;5001787;28;20300;-58
2022/02/16 00:09:40;;;;;;;5.80;3.50;;;1.50;99.90;;;;;;5002020;28;20182;-58
2022/02/16 00:12:07;;;;;;;6.00;3.83;;;1.60;99.90;;;;;;5004781;28;20433;-58
2022/02/16 00:14:33;;;;;;;7.93;3.57;;;1.60;99.90;;;;;;5001687;28;20245;-58
2022/02/16 00:16:58;;;;;;;5.77;2.83;;;1.60;99.90;;;;;;5003086;28;20454;-57
2022/02/16 00:19:24;;;;;;;5.43;2.97;;;1.60;99.90;;;;;;5002238;28;20490;-57
2022/02/16 00:21:50;;;;;;;2.80;2.50;;;1.70;99.90;;;;;;4998982;28;20250;-58
2022/02/16 00:24:16;;;;;;;2.80;2.60;;;1.70;99.90;;;;;;4999880;28;20676;-59
2022/02/16 00:26:41;;;;;;;5.43;2.70;;;1.80;99.90;;;;;;5014855;28;20533;-59
2022/02/16 00:29:07;;;;;;;4.90;2.63;;;1.90;99.90;;;;;;4995545;28;20259;-57
2022/02/16 00:31:33;;;;;;;5.93;2.83;;;1.90;99.90;;;;;;4998963;28;20210;-58
2022/02/16 00:33:58;;;;;;;4.37;2.83;;;1.90;99.90;;;;;;5000167;28;20177;-58
2022/02/16 00:36:24;;;;;;;5.07;2.63;;;1.90;99.90;;;;;;4999911;28;20811;-58
2022/02/16 00:38:50;;;;;;;6.50;2.67;;;2.00;99.90;;;;;;4997727;28;20226;-59
2022/02/16 00:41:15;;;;;;;3.27;2.50;;;2.00;99.90;;;;;;4997159;28;20218;-58
2022/02/16 00:43:41;;;;;;;4.53;2.90;;;2.00;99.90;;;;;;5017266;28;20187;-59
2022/02/16 00:46:06;;;;;;;4.73;2.53;;;2.00;99.90;;;;;;4997430;28;20201;-59
2022/02/16 00:48:32;;;;;;;2.60;2.40;;;2.00;99.90;;;;;;4995917;28;20180;-58
2022/02/16 00:50:58;;;;;;;5.10;2.97;;;2.00;99.90;;;;;;4999832;28;20296;-58
2022/02/16 00:53:24;;;;;;;3.47;2.60;;;2.00;99.90;;;;;;4999144;28;20428;-58
2022/02/16 00:55:50;;;;;;;3.70;2.20;;;2.00;99.90;;;;;;5014353;28;20419;-57
2022/02/16 00:58:16;;;;;;;3.73;2.30;;;2.00;99.90;;;;;;5011579;28;20677;-57
2022/02/16 01:00:41;;;;;;;2.83;2.50;;;2.00;99.90;;;;;;4996216;28;20207;-59
2022/02/16 01:03:07;;;;;;;2.67;2.40;;;2.10;99.90;;;;;;5004394;28;20283;-58
2022/02/16 01:05:33;;;;;;;6.30;2.83;;;2.10;99.90;;;;;;5000729;28;20175;-58
2022/02/16 01:07:58;;;;;;;3.10;2.77;;;2.10;99.80;;;;;;4995615;28;20288;-57
2022/02/16 01:10:24;;;;;;;2.73;2.53;;;2.10;99.50;;;;;;4999985;28;20264;-58
2022/02/16 01:12:50;;;;;;;2.80;2.50;;;2.00;99.80;;;;;;5002026;28;20338;-58
2022/02/16 01:15:16;;;;;;;6.30;2.60;;;2.00;99.80;;;;;;4996373;28;20177;-57
2022/02/16 01:17:41;;;;;;;3.87;2.47;;;2.00;99.90;;;;;;4997494;28;20579;-57
2022/02/16 01:20:08;;;;;;;2.57;2.33;;;2.00;99.90;;;;;;4996679;28;20435;-57
2022/02/16 01:22:34;;;;;;;3.90;2.70;;;2.00;99.70;;;;;;4996300;28;20204;-58
2022/02/16 01:24:59;;;;;;;4.77;3.17;;;2.00;99.60;;;;;;5000790;28;20424;-57
2022/02/16 01:27:25;;;;;;;3.80;2.70;;;2.00;99.50;;;;;;5000648;28;20884;-58
2022/02/16 01:29:51;;;;;;;10.70;2.60;;;2.00;99.50;;;;;;5000156;28;20697;-57
2022/02/16 01:32:17;;;;;;;4.23;2.90;;;2.00;99.20;;;;;;5002938;28;20429;-58
2022/02/16 01:34:43;;;;;;;6.90;2.97;;;2.10;98.90;;;;;;5003039;28;20185;-58
2022/02/16 01:37:09;;;;;;;3.10;2.53;;;2.10;99.00;;;;;;5000997;28;20765;-56
2022/02/16 01:39:34;;;;;;;3.90;2.40;;;2.10;98.90;;;;;;5000428;28;20881;-58
2022/02/16 01:42:01;;;;;;;2.93;2.60;;;2.10;98.70;;;;;;5004044;28;20541;-57
2022/02/16 01:44:26;;;;;;;3.03;2.67;;;2.10;98.80;;;;;;5004772;28;20274;-58
2022/02/16 01:46:54;;;;;;;2.97;2.67;;;2.10;98.80;;;;;;5001654;28;20597;-58
2022/02/16 01:49:20;;;;;;;5.53;2.80;;;2.10;98.90;;;;;;5004947;28;20233;-58
2022/02/16 01:51:47;;;;;;;10.33;2.67;;;2.10;98.70;;;;;;5003307;28;20428;-58
2022/02/16 01:54:14;;;;;;;5.77;2.50;;;2.10;98.90;;;;;;5004946;28;20524;-58
2022/02/16 01:56:44;;;;;;;3.20;2.53;;;2.10;98.90;;;;;;5003569;28;20451;-58
2022/02/16 01:59:11;;;;;;;2.90;2.50;;;2.10;99.20;;;;;;5003006;28;21897;-58
2022/02/16 02:01:38;;;;;;;2.93;2.50;;;2.10;98.90;;;;;;5003102;28;20461;-58
2022/02/16 02:04:05;;;;;;;3.23;2.83;;;2.10;99.30;;;;;;5003824;28;20766;-58
2022/02/16 02:06:30;;;;;;;3.70;2.20;;;2.10;99.50;;;;;;4996681;28;20512;-59
2022/02/16 02:08:56;;;;;;;3.30;2.57;;;2.10;99.50;;;;;;5000646;28;20587;-58
2022/02/16 02:11:21;;;;;;;4.53;2.30;;;2.10;99.70;;;;;;5000143;28;20709;-57
2022/02/16 02:14:04;;;;;;;4.57;2.57;;;2.10;99.40;;;;;;5000521;28;20316;-58
2022/02/16 02:16:30;;;;;;;5.20;2.60;;;2.10;99.50;;;;;;5003220;28;20200;-59
2022/02/16 02:18:56;;;;;;;3.53;2.57;;;2.20;99.40;;;;;;4999692;28;20924;-59
2022/02/16 02:21:22;;;;;;;5.63;2.97;;;2.20;98.40;;;;;;5008188;28;20519;-58
2022/02/16 02:23:49;;;;;;;5.50;2.20;;;2.20;98.30;;;;;;5002025;28;20427;-59
2022/02/16 02:26:15;;;;;;;2.50;2.30;;;2.20;98.20;;;;;;4998547;28;20598;-58
2022/02/16 02:28:41;;;;;;;5.67;2.47;;;2.20;98.20;;;;;;4999760;28;20435;-59
2022/02/16 02:31:08;;;;;;;9.17;3.13;;;2.20;98.10;;;;;;5001403;28;20423;-58
2022/02/16 02:33:33;;;;;;;2.57;2.20;;;2.30;97.70;;;;;;5005400;28;20432;-59
2022/02/16 02:36:00;;;;;;;7.40;2.93;;;2.30;97.90;;;;;;4999470;28;20438;-58
2022/02/16 02:38:26;;;;;;;4.10;2.33;;;2.30;97.60;;;;;;5020321;23;20235;-60
2022/02/16 02:40:57;;;;;;;4.03;2.10;;;2.30;97.60;;;;;;5028044;28;20455;-60
2022/02/16 02:43:25;;;;;;;2.60;2.33;;;2.30;97.60;;;;;;4998906;28;20416;-59
2022/02/16 02:45:51;;;;;;;2.77;2.40;;;2.30;97.30;;;;;;5004223;28;20941;-59
2022/02/16 02:48:24;;;;;;;2.70;2.03;;;2.30;97.40;;;;;;5001986;28;20528;-60
2022/02/16 02:50:54;;;;;;;5.83;2.43;;;2.30;97.30;;;;;;5006621;28;20931;-58
2022/02/16 02:53:20;;;;;;;3.00;2.30;;;2.30;97.40;;;;;;5006483;28;20522;-59
2022/02/16 02:55:46;;;;;;;3.70;2.50;;;2.30;97.60;;;;;;5005328;28;20457;-59
2022/02/16 02:58:12;;;;;;;3.03;2.60;;;2.30;97.70;;;;;;5004994;28;20518;-59
2022/02/16 03:00:38;;;;;;;3.90;2.23;;;2.30;98.10;;;;;;5005954;28;20173;-58
2022/02/16 03:03:04;;;;;;;6.17;2.53;;;2.30;98.00;;;;;;5005630;28;20250;-58
2022/02/16 03:05:30;;;;;;;3.23;2.40;;;2.30;98.20;;;;;;5004736;28;20834;-59
2022/02/16 03:07:56;;;;;;;4.30;2.80;;;2.30;98.30;;;;;;5030428;28;20735;-59
2022/02/16 03:10:22;;;;;;;6.80;2.53;;;2.30;98.30;;;;;;5027920;28;20427;-59
2022/02/16 03:12:48;;;;;;;10.70;3.30;;;2.30;98.50;;;;;;5014850;28;20192;-59
2022/02/16 03:15:13;;;;;;;9.03;3.97;;;2.30;98.50;;;;;;5004823;28;20446;-59
2022/02/16 03:17:39;;;;;;;4.33;3.00;;;2.30;98.60;;;;;;5001724;28;20235;-58
2022/02/16 03:20:06;;;;;;;6.40;3.03;;;2.30;98.80;;;;;;5006401;28;20620;-59
2022/02/16 03:22:33;;;;;;;5.57;2.70;;;2.30;99.00;;;;;;5005036;28;20204;-59
2022/02/16 03:25:01;;;;;;;7.10;2.63;;;2.30;98.90;;;;;;5006737;28;20502;-59
2022/02/16 03:27:27;;;;;;;3.93;2.50;;;2.30;98.90;;;;;;5007247;28;20462;-59
2022/02/16 03:29:54;;;;;;;5.63;2.80;;;2.30;99.20;;;;;;5011224;28;20443;-62
2022/02/16 03:32:20;;;;;;;9.13;2.33;;;2.30;99.10;;;;;;5029193;28;20432;-60
2022/02/16 03:34:45;;;;;;;3.50;2.77;;;2.30;99.50;;;;;;5029704;28;20483;-61
2022/02/16 03:37:11;;;;;;;2.60;2.40;;;2.30;99.60;;;;;;5021719;28;20805;-59
2022/02/16 03:39:37;;;;;;;11.90;2.40;;;2.30;99.60;;;;;;5003048;28;20495;-60
2022/02/16 03:42:03;;;;;;;4.60;2.80;;;2.30;99.70;;;;;;5005560;28;20738;-58
2022/02/16 03:44:29;;;;;;;2.73;2.00;;;2.30;99.50;;;;;;5004138;28;20188;-59
2022/02/16 03:46:55;;;;;;;2.50;2.30;;;2.30;99.90;;;;;;5005031;28;20479;-57
2022/02/16 03:49:21;;;;;;;2.93;1.70;;;2.30;99.80;;;;;;5023674;28;20172;-60
2022/02/16 03:51:47;;;;;;;1.93;1.83;;;2.40;99.30;;;;;;5026736;28;20455;-59
2022/02/16 03:54:13;;;;;;;4.70;2.33;;;2.40;99.80;;;;;;5025660;28;20448;-58
2022/02/16 03:56:39;;;;;;;4.90;1.93;;;2.40;99.90;;;;;;5027179;28;20191;-58
2022/02/16 03:59:04;;;;;;;2.70;2.13;;;2.40;99.90;;;;;;5006100;28;20458;-59
2022/02/16 04:01:30;;;;;;;3.77;2.17;;;2.40;99.90;;;;;;5005769;28;20606;-59
2022/02/16 04:03:56;;;;;;;3.27;1.83;;;2.40;99.90;;;;;;5004075;28;20181;-57
2022/02/16 04:06:22;;;;;;;3.47;2.30;;;2.40;99.90;;;;;;5004456;28;20196;-58
2022/02/16 04:08:47;;;;;;;9.00;3.63;;;2.40;99.90;;;;;;5000854;28;20192;-57
2022/02/16 04:11:13;;;;;;;3.27;2.00;;;2.40;99.90;;;;;;5005930;28;20430;-57
2022/02/16 04:13:40;;;;;;;3.17;2.07;;;2.40;99.90;;;;;;5006245;28;20181;-57
2022/02/16 04:16:05;;;;;;;2.90;1.90;;;2.40;99.90;;;;;;5024916;28;20435;-59
2022/02/16 04:18:31;;;;;;;3.50;1.80;;;2.50;99.90;;;;;;5028065;28;20550;-58
2022/02/16 04:20:57;;;;;;;3.90;2.27;;;2.50;99.90;;;;;;5010557;28;20187;-59
2022/02/16 04:23:22;;;;;;;2.23;1.97;;;2.50;99.90;;;;;;5005710;28;20183;-58
2022/02/16 04:25:48;;;;;;;2.47;2.27;;;2.60;99.90;;;;;;5004961;28;20184;-57
2022/02/16 04:28:14;;;;;;;2.73;2.20;;;2.60;99.90;;;;;;5004236;28;20267;-56
2022/02/16 04:30:40;;;;;;;5.33;2.30;;;2.60;99.80;;;;;;5002507;28;20828;-57
2022/02/16 04:33:07;;;;;;;2.47;2.07;;;2.60;99.80;;;;;;5002592;28;20206;-58
2022/02/16 04:35:32;;;;;;;2.00;1.80;;;2.60;99.60;;;;;;5002650;28;20953;-58
2022/02/16 04:37:58;;;;;;;5.70;2.87;;;2.60;99.30;;;;;;5005418;28;20477;-60
2022/02/16 04:40:24;;;;;;;3.43;2.83;;;2.70;99.50;;;;;;5003171;28;20246;-58
2022/02/16 04:42:49;;;;;;;2.07;1.87;;;2.70;99.20;;;;;;5002414;28;20261;-63
2022/02/16 04:45:15;;;;;;;3.10;2.07;;;2.70;99.60;;;;;;5003488;28;20187;-57
2022/02/16 04:47:43;;;;;;;2.70;1.90;;;2.70;99.60;;;;;;5000489;28;20807;-58
2022/02/16 04:50:09;;;;;;;2.10;1.77;;;2.70;99.60;;;;;;5011019;28;20175;-57
2022/02/16 04:52:35;;;;;;;4.30;2.40;;;2.70;99.70;;;;;;5002120;28;20496;-58
2022/02/16 04:55:07;;;;;;;2.43;1.80;;;2.70;99.60;;;;;;5008743;28;21355;-57
2022/02/16 04:57:33;;;;;;;5.27;2.00;;;2.70;99.90;;;;;;5007965;28;20452;-57
2022/02/16 04:59:59;;;;;;;3.70;2.10;;;2.80;99.60;;;;;;5003268;28;20428;-58
2022/02/16 05:02:28;;;;;;;4.27;2.70;;;2.80;99.80;;;;;;5004452;28;20451;-57
2022/02/16 05:04:54;;;;;;;2.70;1.80;;;2.80;99.90;;;;;;5004761;28;20438;-57
2022/02/16 05:07:21;;;;;;;4.13;2.03;;;2.80;99.70;;;;;;4997931;28;20978;-58
2022/02/16 05:09:47;;;;;;;1.93;1.70;;;2.80;99.90;;;;;;5003556;28;20562;-58
2022/02/16 05:12:12;;;;;;;3.13;2.07;;;2.80;99.90;;;;;;5001568;28;20561;-57
2022/02/16 05:14:38;;;;;;;2.77;1.73;;;2.80;99.90;;;;;;5004645;28;21353;-56
2022/02/16 05:17:04;;;;;;;5.33;1.70;;;2.80;99.90;;;;;;5003367;28;20197;-56
2022/02/16 05:19:30;;;;;;;5.33;1.90;;;2.80;99.90;;;;;;5003164;28;20426;-56
2022/02/16 05:21:56;;;;;;;4.87;2.27;;;2.90;99.90;;;;;;5029095;28;20200;-58
2022/02/16 05:24:22;;;;;;;5.20;2.07;;;2.90;99.90;;;;;;5016825;28;20347;-59
2022/02/16 05:26:48;;;;;;;3.07;2.27;;;2.80;99.90;;;;;;5000426;28;20492;-57
2022/02/16 05:29:13;;;;;;;1.80;1.70;;;2.80;99.90;;;;;;4996327;28;20462;-57
2022/02/16 05:31:39;;;;;;;4.30;2.10;;;2.80;99.90;;;;;;5001680;28;20254;-58
2022/02/16 05:34:05;;;;;;;2.00;1.90;;;2.90;99.90;;;;;;5000696;28;20192;-56
2022/02/16 05:36:31;;;;;;;2.73;2.00;;;2.90;99.90;;;;;;4996747;28;20461;-59
2022/02/16 05:38:57;;;;;;;5.20;2.50;;;2.90;99.90;;;;;;5001127;28;20196;-57
2022/02/16 05:41:23;;;;;;;5.23;2.77;;;2.90;99.90;;;;;;4999626;28;20245;-58
2022/02/16 05:43:48;;;;;;;4.00;2.63;;;2.90;99.90;;;;;;4995711;28;20279;-57
2022/02/16 05:46:15;;;;;;;6.73;2.57;;;2.90;99.90;;;;;;5003214;28;20193;-58
2022/02/16 05:48:40;;;;;;;2.50;2.30;;;2.90;99.90;;;;;;4995928;28;20684;-56
2022/02/16 05:51:06;;;;;;;2.73;2.27;;;3.00;99.90;;;;;;5001143;28;20587;-57
2022/02/16 05:53:32;;;;;;;2.17;1.97;;;3.00;99.90;;;;;;5008275;28;20222;-57
2022/02/16 05:55:57;;;;;;;2.27;2.07;;;3.00;99.90;;;;;;5005118;28;20229;-56
2022/02/16 05:58:23;;;;;;;2.40;2.17;;;3.00;99.90;;;;;;5006168;28;20219;-57
2022/02/16 06:00:48;;;;;;;4.10;2.10;;;3.00;99.90;;;;;;5007734;28;20234;-59
2022/02/16 06:03:14;;;;;;;2.87;2.33;;;3.00;99.90;;;;;;5002447;28;20568;-58
2022/02/16 06:05:40;;;;;;;3.90;2.50;;;3.00;99.90;;;;;;5003343;28;20272;-58
2022/02/16 06:08:05;;;;;;;4.07;2.50;;;3.00;99.90;;;;;;5003237;28;20931;-56
2022/02/16 06:10:31;;;;;;;2.37;2.17;;;3.00;99.90;;;;;;5004330;28;20222;-58
2022/02/16 06:13:00;;;;;;;3.57;2.33;;;3.00;99.90;;;;;;5000162;28;20329;-58
2022/02/16 06:15:27;;;;;;;5.27;2.20;;;3.00;99.90;;;;;;5010888;28;20195;-58
2022/02/16 06:17:54;;;;;;;2.43;2.23;;;3.00;99.90;;;;;;5001542;28;20444;-58
2022/02/16 06:20:20;;;;;;;2.80;2.10;;;3.00;99.90;;;;;;4999778;28;20705;-58
2022/02/16 06:22:46;;;;;;;4.10;2.23;;;3.00;99.90;;;;;;5002901;28;20466;-58
2022/02/16 06:25:12;;;;;;;2.27;1.83;;;3.00;99.90;;;;;;5014079;28;20507;-58
2022/02/16 06:27:38;;;;;;;5.70;2.07;;;3.00;99.90;;;;;;5011788;28;20287;-58
2022/02/16 06:30:05;;;;;;;3.70;2.20;;;3.00;99.90;;;;;;5001996;28;20669;-56
2022/02/16 06:32:31;;;;;;;2.50;2.30;;;3.00;99.90;;;;;;5005387;28;20456;-59
2022/02/16 06:34:57;;;;;;;3.13;2.50;;;3.00;99.90;;;;;;5008904;28;20926;-60
2022/02/16 06:37:23;;;;;;;5.57;2.10;;;3.10;99.90;;;;;;5011853;28;20443;-58
2022/02/16 06:39:49;;;;;;;5.20;3.03;;;3.00;99.90;;;;;;5029086;28;20219;-58
2022/02/16 06:42:15;;;;;;;5.50;3.17;;;3.10;99.90;;;;;;5030333;28;20463;-59
2022/02/16 06:44:41;;;;;;;5.43;3.00;;;3.10;99.90;;;;;;5008551;28;20719;-57
2022/02/16 06:47:07;;;;;;;5.23;2.90;;;3.10;99.90;;;;;;5011160;28;20451;-58
2022/02/16 06:49:32;;;;;;;9.57;3.47;;;3.10;99.90;;;;;;5006293;28;20239;-59
2022/02/16 06:51:58;;;;;;;6.33;3.00;;;3.10;99.90;;;;;;5011885;28;20475;-58
2022/02/16 06:54:24;;;;;;;6.53;3.80;;;3.10;99.90;;;;;;5011140;28;20172;-57
2022/02/16 06:56:50;;;;;;;5.33;3.33;;;3.10;99.90;;;;;;5006103;28;20201;-59
2022/02/16 06:59:15;;;;;;;6.53;3.93;;;3.10;99.90;;;;;;5007693;28;20608;-58
2022/02/16 07:01:41;;;;;;;7.40;3.43;;;3.10;99.90;;;;;;5007049;28;20494;-58
2022/02/16 07:04:07;;;;;;;5.17;3.07;;;3.20;99.90;;;;;;5007744;28;20641;-57
2022/02/16 07:06:33;;;;;;;5.57;3.23;;;3.20;99.90;;;;;;5007899;28;20169;-59
2022/02/16 07:08:58;;;;;;;6.90;3.90;;;3.20;99.90;;;;;;5001670;28;20180;-59
2022/02/16 07:11:24;;;;;;;6.23;2.50;;;3.20;99.90;;;;;;5009651;28;20740;-59
2022/02/16 07:13:50;;;;;;;3.17;2.50;;;3.20;99.90;;;;;;5004108;28;20220;-59
2022/02/16 07:16:16;;;;;;;3.73;2.77;;;3.30;99.90;;;;;;5012341;28;20684;-58
2022/02/16 07:18:43;;;;;;;4.93;2.70;;;3.30;99.90;;;;;;5009811;28;20227;-59
2022/02/16 07:21:09;;;;;;;9.33;3.23;;;3.30;99.90;;;;;;5008211;28;20433;-58
2022/02/16 07:23:36;;;;;;;4.37;2.60;;;3.40;99.90;;;;;;5016995;28;20847;-59
2022/02/16 07:26:03;;;;;;;2.93;2.40;;;3.40;99.90;;;;;;5011666;28;20425;-57
2022/02/16 07:28:28;;;;;;;5.90;3.30;;;3.40;99.90;;;;;;5023089;28;20907;-60
2022/02/16 07:30:56;;;;;;;3.80;2.57;;;3.40;99.90;;;;;;5009328;28;20419;-58
2022/02/16 07:33:22;;;;;;;6.93;3.70;;;3.40;99.90;;;;;;5008963;28;20180;-57
2022/02/16 07:35:48;;;;;;;7.33;3.30;;;3.50;99.90;;;;;;5005865;28;20437;-58
2022/02/16 07:38:13;;;;;;;5.73;3.20;;;3.50;99.90;;;;;;5007965;28;20471;-58
2022/02/16 07:40:39;;;;;;;4.30;3.50;;;3.50;99.90;;;;;;5019550;28;20236;-59
2022/02/16 07:43:05;;;;;;;5.17;3.17;;;3.50;99.90;;;;;;5019372;28;20201;-62
2022/02/16 07:45:31;;;;;;;7.27;3.70;;;3.50;99.90;;;;;;5026618;28;20176;-58
2022/02/16 07:47:56;;;;;;;5.87;3.17;;;3.60;99.90;;;;;;5006306;28;20296;-57
2022/02/16 07:50:23;;;;;;;4.07;2.77;;;3.60;99.90;;;;;;5006531;28;20545;-57
2022/02/16 07:52:49;;;;;;;2.73;2.40;;;3.70;99.90;;;;;;5003639;28;20211;-57
2022/02/16 07:55:15;;;;;;;2.80;2.10;;;3.70;99.90;;;;;;5008018;28;20832;-56
2022/02/16 07:57:41;;;;;;;4.53;2.40;;;3.70;99.90;;;;;;5005732;28;20465;-56
2022/02/16 08:00:08;;;;;;;3.63;2.10;;;3.70;99.90;;;;;;5003727;28;20656;-57
2022/02/16 08:02:33;;;;;;;4.83;2.20;;;3.80;99.90;;;;;;5016605;28;20466;-57
2022/02/16 08:04:59;;;;;;;4.07;2.00;;;3.80;99.90;;;;;;5023902;28;20474;-57
2022/02/16 08:07:25;;;;;;;3.90;2.33;;;3.80;99.90;;;;;;5003683;28;20197;-57
2022/02/16 08:09:50;;;;;;;4.77;2.60;;;3.80;99.90;;;;;;5004003;28;20176;-57
2022/02/16 08:12:16;;;;;;;4.20;2.57;;;3.80;99.90;;;;;;5004909;28;20251;-56
2022/02/16 08:14:41;;;;;;;4.97;3.90;;;3.80;99.90;;;;;;5006742;28;20211;-57
2022/02/16 08:17:08;;;;;;;5.77;3.70;;;3.80;99.90;;;;;;5007309;28;20201;-58
2022/02/16 08:19:34;;;;;;;5.10;3.30;;;3.90;99.90;;;;;;5014719;28;20196;-59
2022/02/16 08:22:00;;;;;;;6.50;3.03;;;3.90;99.90;;;;;;5006315;28;20463;-58
2022/02/16 08:24:26;;;;;;;5.20;3.60;;;3.90;99.90;;;;;;5005371;28;20180;-59
2022/02/16 08:26:55;;;;;;;3.50;2.50;;;3.90;99.90;;;;;;5006010;28;20287;-58
2022/02/16 08:29:24;;;;;;;15.10;3.27;;;4.00;99.90;;;;;;5014763;28;20427;-58
2022/02/16 08:31:51;;;;;;;2.53;2.33;;;4.00;99.90;;;;;;5004261;28;20443;-57
2022/02/16 08:34:17;;;;;;;5.43;2.23;;;4.00;99.90;;;;;;5005312;28;20435;-58
2022/02/16 08:36:43;;;;;;;2.90;2.17;;;4.00;99.90;;;;;;5002229;28;20465;-55
2022/02/16 08:39:09;;;;;;;3.20;1.93;;;4.00;99.90;;;;;;5023485;22;20892;-59
2022/02/16 08:41:35;;;;;;;1.93;1.83;;;4.00;99.90;;;;;;5005933;28;20476;-58
2022/02/16 08:44:01;;;;;;;2.00;1.87;;;4.10;99.90;;;;;;5008723;28;20419;-59
2022/02/16 08:46:26;;;;;;;2.87;2.00;;;4.10;99.90;;;;;;5008392;28;20169;-57
2022/02/16 08:48:52;;;;;;;3.00;2.20;;;4.10;99.90;;;;;;5005658;28;20279;-59
2022/02/16 08:51:18;;;;;;;3.57;1.70;;;4.10;99.90;;;;;;5007974;28;20177;-60
2022/02/16 08:53:43;;;;;;;1.87;1.73;;;4.10;99.90;;;;;;5008358;28;20197;-59
2022/02/16 08:56:09;;;;;;;1.93;1.83;;;4.10;99.90;;;;;;5022876;28;20215;-57
2022/02/16 08:58:35;;;;;;;1.87;1.77;;;4.20;99.90;;;;;;5006037;28;20192;-59
2022/02/16 09:01:01;;;;;;;2.47;1.83;;;4.20;99.90;;;;;;5006778;28;20179;-59
2022/02/16 09:03:29;;;;;;;3.17;1.73;;;4.20;99.90;;;;;;5004277;28;20899;-59
2022/02/16 09:05:55;;;;;;;1.73;1.63;;;4.20;99.90;;;;;;5001095;28;20505;-60
2022/02/16 09:08:20;;;;;;;2.40;1.83;;;4.20;99.90;;;;;;5002298;28;20539;-60
2022/02/16 09:10:47;;;;;;;2.40;2.20;;;4.20;99.90;;;;;;5005809;28;20533;-60
2022/02/16 09:13:13;;;;;;;3.53;2.30;;;4.20;99.90;;;;;;5009744;28;20193;-59
2022/02/16 09:15:39;;;;;;;4.30;2.30;;;4.30;99.90;;;;;;5011798;28;20512;-60
2022/02/16 09:18:05;;;;;;;2.20;1.83;;;4.30;99.90;;;;;;5007205;28;21051;-58
2022/02/16 09:20:31;;;;;;;2.50;1.60;;;4.40;99.90;;;;;;5008630;28;20669;-60
2022/02/16 09:22:56;;;;;;;1.70;1.60;;;4.40;99.90;;;;;;5007470;28;20482;-61
2022/02/16 09:25:22;;;;;;;2.17;1.50;;;4.50;99.90;;;;;;5008120;28;20515;-59
2022/02/16 09:27:48;;;;;;;1.80;1.70;;;4.50;99.90;;;;;;5005988;28;20242;-59
2022/02/16 09:30:14;;;;;;;2.20;1.97;;;4.50;99.90;;;;;;5008535;28;20200;-59
2022/02/16 09:32:39;;;;;;;1.80;1.60;;;4.60;99.90;;;;;;5005624;28;20263;-59
2022/02/16 09:35:06;;;;;;;2.03;1.83;;;4.60;99.90;;;;;;5007575;28;20185;-59
2022/02/16 09:37:31;;;;;;;2.23;2.07;;;4.60;99.90;;;;;;5008174;28;20177;-60
2022/02/16 09:39:58;;;;;;;1.93;1.50;;;4.60;99.90;;;;;;4996841;28;20439;-59
2022/02/16 09:42:24;;;;;;;2.30;1.50;;;4.60;99.90;;;;;;5004430;28;20236;-60
2022/02/16 09:45:00;;;;;;;1.50;1.40;;;4.60;99.90;;;;;;5006940;28;20510;-59
2022/02/16 09:47:26;;;;;;;1.87;1.70;;;4.60;99.90;;;;;;5007702;28;20936;-60
2022/02/16 09:49:53;;;;;;;1.87;1.77;;;4.60;99.90;;;;;;5007502;28;20446;-59
2022/02/16 09:52:21;;;;;;;2.47;1.50;;;4.70;99.90;;;;;;5009874;28;20465;-61
2022/02/16 09:54:47;;;;;;;1.83;1.53;;;4.70;99.90;;;;;;5013957;28;20427;-60
2022/02/16 09:57:14;;;;;;;1.43;1.33;;;4.70;99.90;;;;;;5013850;28;20531;-60
2022/02/16 09:59:40;;;;;;;1.43;1.33;;;4.70;99.90;;;;;;5012921;28;20446;-60
2022/02/16 10:02:08;;;;;;;2.53;1.37;;;4.80;99.90;;;;;;5014305;28;20474;-60
2022/02/16 10:04:36;;;;;;;1.90;1.47;;;4.80;99.90;;;;;;5012977;28;20453;-59
2022/02/16 10:07:19;;;;;;;1.47;1.37;;;4.80;99.90;;;;;;5007012;28;20439;-59
2022/02/16 10:09:45;;;;;;;2.40;1.60;;;4.80;99.90;;;;;;5006985;28;20431;-58
2022/02/16 10:12:10;;;;;;;1.73;1.47;;;4.90;99.90;;;;;;5009622;28;21275;-59
2022/02/16 10:14:38;;;;;;;1.60;1.40;;;4.90;99.90;;;;;;5012667;28;20259;-59
2022/02/16 10:17:26;;;;;;;1.30;1.20;;;4.90;99.90;;;;;;5009310;28;20204;-59
2022/02/16 10:19:54;;;;;;;1.10;1.10;;;4.90;99.90;;;;;;5008319;28;20465;-59
2022/02/16 10:22:22;;;;;;;1.47;1.37;;;5.00;99.90;;;;;;5008776;28;20475;-59
2022/02/16 10:24:49;;;;;;;1.40;1.30;;;5.00;99.90;;;;;;5012221;28;20415;-59
2022/02/16 10:27:15;;;;;;;2.70;1.30;;;5.10;99.90;;;;;;5011069;28;20787;-59
2022/02/16 10:29:43;;;;;;;1.20;1.10;;;5.10;99.90;;;;;;5010166;28;20499;-59
2022/02/16 10:32:10;;;;;;;1.20;1.20;;;5.10;99.90;;;;;;5008431;28;20524;-59
2022/02/16 10:34:53;;;;;;;2.20;1.30;;;5.10;99.90;;;;;;5010430;28;20613;-59
2022/02/16 10:37:35;;;;;;;1.10;1.00;;;5.20;99.90;;;;;;5007216;28;20434;-58
2022/02/16 10:40:12;;;;;;;1.30;1.20;;;5.20;99.90;;;;;;5009862;28;20477;-59
2022/02/16 10:42:55;;;;;;;2.83;1.40;;;5.20;99.90;;;;;;5009174;28;20548;-59
2022/02/16 10:45:22;;;;;;;1.30;1.20;;;5.20;99.90;;;;;;5006330;28;20434;-60
2022/02/16 10:48:08;;;;;;;1.50;1.40;;;5.20;99.90;;;;;;5010625;28;20960;-59
2022/02/16 10:50:44;;;;;;;1.73;1.63;;;5.20;99.90;;;;;;5006989;28;20419;-59
2022/02/16 10:53:11;;;;;;;1.60;1.50;;;5.20;99.90;;;;;;5010262;28;20477;-59
2022/02/16 10:55:48;;;;;;;1.87;1.50;;;5.20;99.90;;;;;;5009259;28;20518;-59
2022/02/16 10:58:19;;;;;;;2.00;1.50;;;5.20;99.90;;;;;;5007453;28;20830;-59
2022/02/16 11:00:47;;;;;;;1.67;1.57;;;5.30;99.90;;;;;;5025335;28;20427;-59
2022/02/16 11:03:36;;;;;;;1.40;1.30;;;5.20;99.90;;;;;;5010226;28;20459;-58
2022/02/16 11:06:07;;;;;;;2.23;1.60;;;5.30;99.90;;;;;;4999690;28;20423;-59
2022/02/16 11:08:36;;;;;;;1.53;1.43;;;5.20;99.90;;;;;;5003329;28;20443;-59
2022/02/16 11:11:05;;;;;;;2.03;1.63;;;5.20;99.90;;;;;;5010139;28;20427;-59
2022/02/16 11:13:32;;;;;;;1.50;1.40;;;5.20;99.90;;;;;;5008978;28;20888;-59
2022/02/16 11:16:00;;;;;;;1.63;1.30;;;5.20;99.90;;;;;;5015069;28;20436;-59
2022/02/16 11:18:30;;;;;;;2.10;1.30;;;5.20;99.90;;;;;;5006976;28;20491;-59
2022/02/16 11:21:10;;;;;;;3.23;1.67;;;5.20;99.90;;;;;;5011097;28;20423;-61
2022/02/16 11:23:47;;;;;;;1.30;1.20;;;5.20;99.90;;;;;;5006823;28;20543;-59
2022/02/16 11:26:35;;;;;;;1.30;1.20;;;5.20;99.90;;;;;;5007789;28;20423;-59
2022/02/16 11:29:07;;;;;;;1.30;1.20;;;5.20;99.90;;;;;;5024058;28;21117;-59
2022/02/16 11:31:37;;;;;;;1.40;1.30;;;5.20;99.90;;;;;;5000535;28;20439;-59
2022/02/16 11:34:11;;;;;;;1.57;1.43;;;5.20;99.90;;;;;;5013252;28;20525;-59
2022/02/16 11:36:57;;;;;;;2.50;2.20;;;5.30;99.90;;;;;;5008259;28;20489;-59
2022/02/16 11:39:47;;;;;;;2.57;2.37;;;5.30;99.90;;;;;;5006818;28;20837;-59
2022/02/16 11:42:17;;;;;;;1.97;1.77;;;5.30;99.90;;;;;;5007328;28;20482;-60
2022/02/16 11:44:51;;;;;;;1.60;1.50;;;5.30;99.90;;;;;;5009630;28;20427;-59
2022/02/16 11:47:35;;;;;;;1.60;1.50;;;5.40;99.90;;;;;;5006614;28;20454;-60
2022/02/16 11:50:10;;;;;;;1.67;1.57;;;5.40;99.90;;;;;;5006831;28;20443;-59
2022/02/16 11:52:57;;;;;;;1.50;1.40;;;5.40;99.90;;;;;;5009681;28;20467;-58
2022/02/16 11:55:43;;;;;;;1.00;1.00;;;5.40;99.90;;;;;;5009669;28;20502;-59
2022/02/16 11:58:18;;;;;;;1.47;1.37;;;5.40;99.90;;;;;;5001952;28;20826;-57
2022/02/16 12:00:55;;;;;;;1.60;1.50;;;5.40;99.90;;;;;;5015625;28;20469;-58
2022/02/16 12:03:51;;;;;;;1.40;1.30;;;5.40;99.90;;;;;;5019804;28;20466;-59
2022/02/16 12:06:21;;;;;;;1.20;1.20;;;5.40;99.90;;;;;;5007115;28;20502;-57
2022/02/16 12:08:51;;;;;;;1.83;1.33;;;5.50;99.90;;;;;;5008283;28;20443;-58
2022/02/16 12:11:29;;;;;;;1.20;1.20;;;5.50;99.90;;;;;;5023121;28;20967;-59
2022/02/16 12:14:04;;;;;;;1.53;1.10;;;5.50;99.90;;;;;;5007128;28;20423;-59
2022/02/16 12:16:45;;;;;;;1.00;1.00;;;5.50;99.90;;;;;;5008284;28;20427;-58
2022/02/16 12:19:16;;;;;;;1.00;1.00;;;5.50;99.90;;;;;;5007143;28;20971;-59
2022/02/16 12:21:47;;;;;;;1.07;1.00;;;5.50;99.90;;;;;;5006256;28;20823;-58
2022/02/16 12:24:14;;;;;;;0.90;0.90;;;5.50;99.90;;;;;;5009917;28;20764;-59
2022/02/16 12:26:41;;;;;;;1.37;1.00;;;5.50;99.90;;;;;;5003820;28;20415;-58
2022/02/16 12:29:10;;;;;;;1.00;1.00;;;5.50;99.90;;;;;;5009151;28;20979;-57
2022/02/16 12:31:39;;;;;;;1.00;1.00;;;5.50;99.90;;;;;;5018731;28;20427;-58
2022/02/16 12:34:07;;;;;;;1.10;1.10;;;5.50;99.90;;;;;;5007457;28;20424;-56
2022/02/16 12:36:43;;;;;;;0.90;0.90;;;5.50;99.90;;;;;;5006138;28;20449;-58
2022/02/16 12:39:10;;;;;;;1.30;1.20;;;5.40;99.90;;;;;;5007821;28;20498;-58
2022/02/16 12:41:37;;;;;;;1.33;1.20;;;5.40;99.90;;;;;;5006874;28;20511;-59
2022/02/16 12:44:14;;;;;;;1.77;1.67;;;5.40;99.90;;;;;;5025903;28;20434;-58
2022/02/16 12:46:45;;;;;;;1.67;1.40;;;5.40;99.90;;;;;;5007232;28;20446;-57
2022/02/16 12:49:14;;;;;;;1.00;1.00;;;5.40;99.90;;;;;;5020421;28;20999;-58
2022/02/16 12:51:43;;;;;;;0.90;0.90;;;5.40;99.90;;;;;;5022283;28;20427;-57
2022/02/16 12:54:18;;;;;;;1.10;1.00;;;5.50;99.90;;;;;;5007427;28;20813;-59
2022/02/16 12:56:48;;;;;;;1.33;1.23;;;5.50;99.90;;;;;;5005107;28;21183;-58
2022/02/16 12:59:23;;;;;;;1.23;1.13;;;5.60;99.90;;;;;;5002809;28;20459;-58
2022/02/16 13:01:57;;;;;;;1.70;1.20;;;5.70;99.90;;;;;;5018188;28;20930;-58